sensor_id;sensor_type;location;lat;lon;timestamp;temperature;humidity
5017;DHT22;2527;50.892;16.706;2023-06-10T00:00:38;17.20;99.90
5017;DHT22;2527;50.892;16.706;2023-06-10T00:03:06;17.10;99.90
5017;DHT22;2527;50.892;16.706;2023-06-10T00:05:33;17.10;99.90
5017;DHT22;2527;50.892;16.706;2023-06-10T00:08:00;17.10;99.90
5017;DHT22;2527;50.892;16.706;2023-06-10T00:10:35;17.10;99.90
5017;DHT22;2527;50.892;16.706;2023-06-10T00:13:02;17.10;99.90
5017;DHT22;2527;50.892;16.706;2023-06-10T00:15:33;17.10;99.90
5017;DHT22;2527;50.892;16.706;2023-06-10T00:18:00;17.10;99.90
5017;DHT22;2527;50.892;16.706;2023-06-10T00:20:26;17.10;99.90
5017;DHT22;2527;50.892;16.706;2023-06-10T00:22:52;17.10;99.90
5017;DHT22;2527;50.892;16.706;2023-06-10T00:25:20;17.00;99.90
5017;DHT22;2527;50.892;16.706;2023-06-10T00:27:46;17.00;99.90
5017;DHT22;2527;50.892;16.706;2023-06-10T00:30:12;17.00;99.90
5017;DHT22;2527;50.892;16.706;2023-06-10T00:32:38;17.00;99.90
5017;DHT22;2527;50.892;16.706;2023-06-10T00:35:04;17.00;99.90
5017;DHT22;2527;50.892;16.706;2023-06-10T00:37:31;17.10;99.90
5017;DHT22;2527;50.892;16.706;2023-06-10T00:39:57;17.00;99.90
5017;DHT22;2527;50.892;16.706;2023-06-10T00:42:23;17.00;99.90
5017;DHT22;2527;50.892;16.706;2023-06-10T00:44:50;17.00;99.90
5017;DHT22;2527;50.892;16.706;2023-06-10T00:47:16;17.10;99.90
5017;DHT22;2527;50.892;16.706;2023-06-10T00:49:44;17.10;99.90
5017;DHT22;2527;50.892;16.706;2023-06-10T00:52:13;17.10;99.90
5017;DHT22;2527;50.892;16.706;2023-06-10T00:54:40;17.10;99.90
5017;DHT22;2527;50.892;16.706;2023-06-10T00:57:07;17.20;99.90
5017;DHT22;2527;50.892;16.706;2023-06-10T00:59:33;17.20;99.90
5017;DHT22;2527;50.892;16.706;2023-06-10T01:01:59;17.20;99.90
5017;DHT22;2527;50.892;16.706;2023-06-10T01:04:26;17.20;99.90
5017;DHT22;2527;50.892;16.706;2023-06-10T01:10:02;17.20;99.90
5017;DHT22;2527;50.892;16.706;2023-06-10T01:15:09;17.20;99.90
5017;DHT22;2527;50.892;16.706;2023-06-10T01:17:37;17.20;99.90
5017;DHT22;2527;50.892;16.706;2023-06-10T01:20:16;17.30;99.90
5017;DHT22;2527;50.892;16.706;2023-06-10T01:22:43;17.30;99.90
5017;DHT22;2527;50.892;16.706;2023-06-10T01:25:11;17.30;99.90
5017;DHT22;2527;50.892;16.706;2023-06-10T01:27:37;17.30;99.90
5017;DHT22;2527;50.892;16.706;2023-06-10T01:30:18;17.20;99.90
5017;DHT22;2527;50.892;16.706;2023-06-10T01:32:47;17.30;99.90
5017;DHT22;2527;50.892;16.706;2023-06-10T01:35:13;17.30;99.90
5017;DHT22;2527;50.892;16.706;2023-06-10T01:37:40;17.30;99.90
5017;DHT22;2527;50.892;16.706;2023-06-10T01:40:08;17.30;99.90
5017;DHT22;2527;50.892;16.706;2023-06-10T01:42:35;17.30;99.90
5017;DHT22;2527;50.892;16.706;2023-06-10T01:45:01;17.30;99.90
5017;DHT22;2527;50.892;16.706;2023-06-10T01:47:28;17.30;99.90
5017;DHT22;2527;50.892;16.706;2023-06-10T01:49:55;17.30;99.90
5017;DHT22;2527;50.892;16.706;2023-06-10T01:52:20;17.30;99.90
5017;DHT22;2527;50.892;16.706;2023-06-10T01:54:47;17.30;99.90
5017;DHT22;2527;50.892;16.706;2023-06-10T01:57:12;17.30;99.90
5017;DHT22;2527;50.892;16.706;2023-06-10T01:59:39;17.40;99.90
5017;DHT22;2527;50.892;16.706;2023-06-10T02:02:05;17.40;99.90
5017;DHT22;2527;50.892;16.706;2023-06-10T02:04:31;17.40;99.90
5017;DHT22;2527;50.892;16.706;2023-06-10T02:06:57;17.40;99.90
5017;DHT22;2527;50.892;16.706;2023-06-10T02:09:23;17.40;99.90
5017;DHT22;2527;50.892;16.706;2023-06-10T02:11:50;17.40;99.90
5017;DHT22;2527;50.892;16.706;2023-06-10T02:14:16;17.50;99.90
5017;DHT22;2527;50.892;16.706;2023-06-10T02:16:42;17.50;99.90
5017;DHT22;2527;50.892;16.706;2023-06-10T02:19:10;17.50;99.90
5017;DHT22;2527;50.892;16.706;2023-06-10T02:21:37;17.50;99.90
5017;DHT22;2527;50.892;16.706;2023-06-10T02:24:03;17.50;99.90
5017;DHT22;2527;50.892;16.706;2023-06-10T02:26:29;17.50;99.90
5017;DHT22;2527;50.892;16.706;2023-06-10T02:28:54;17.50;99.90
5017;DHT22;2527;50.892;16.706;2023-06-10T02:31:22;17.50;99.90
5017;DHT22;2527;50.892;16.706;2023-06-10T02:33:49;17.50;99.90
5017;DHT22;2527;50.892;16.706;2023-06-10T02:36:15;17.50;99.90
5017;DHT22;2527;50.892;16.706;2023-06-10T02:38:41;17.50;99.90
5017;DHT22;2527;50.892;16.706;2023-06-10T02:41:07;17.50;99.90
5017;DHT22;2527;50.892;16.706;2023-06-10T02:43:33;17.50;99.90
5017;DHT22;2527;50.892;16.706;2023-06-10T02:45:58;17.60;99.90
5017;DHT22;2527;50.892;16.706;2023-06-10T02:48:24;17.60;99.90
5017;DHT22;2527;50.892;16.706;2023-06-10T02:50:51;17.60;99.90
5017;DHT22;2527;50.892;16.706;2023-06-10T02:53:17;17.60;99.90
5017;DHT22;2527;50.892;16.706;2023-06-10T02:55:42;17.50;99.90
5017;DHT22;2527;50.892;16.706;2023-06-10T02:58:09;17.60;99.90
5017;DHT22;2527;50.892;16.706;2023-06-10T03:00:35;17.60;99.90
5017;DHT22;2527;50.892;16.706;2023-06-10T03:03:03;17.60;99.90
5017;DHT22;2527;50.892;16.706;2023-06-10T03:05:30;17.60;99.90
5017;DHT22;2527;50.892;16.706;2023-06-10T03:07:55;17.60;99.90
5017;DHT22;2527;50.892;16.706;2023-06-10T03:10:21;17.60;99.90
5017;DHT22;2527;50.892;16.706;2023-06-10T03:12:47;17.60;99.90
5017;DHT22;2527;50.892;16.706;2023-06-10T03:15:13;17.60;99.90
5017;DHT22;2527;50.892;16.706;2023-06-10T03:17:39;17.60;99.90
5017;DHT22;2527;50.892;16.706;2023-06-10T03:20:06;17.60;99.90
5017;DHT22;2527;50.892;16.706;2023-06-10T03:22:33;17.60;99.90
5017;DHT22;2527;50.892;16.706;2023-06-10T03:24:59;17.60;99.90
5017;DHT22;2527;50.892;16.706;2023-06-10T03:27:25;17.60;99.90
5017;DHT22;2527;50.892;16.706;2023-06-10T03:29:52;17.60;99.90
5017;DHT22;2527;50.892;16.706;2023-06-10T03:32:17;17.60;99.90
5017;DHT22;2527;50.892;16.706;2023-06-10T03:34:43;17.60;99.90
5017;DHT22;2527;50.892;16.706;2023-06-10T03:37:10;17.70;99.90
5017;DHT22;2527;50.892;16.706;2023-06-10T03:39:37;17.70;99.90
5017;DHT22;2527;50.892;16.706;2023-06-10T03:42:03;17.70;99.90
5017;DHT22;2527;50.892;16.706;2023-06-10T03:44:29;17.70;99.90
5017;DHT22;2527;50.892;16.706;2023-06-10T03:46:55;17.70;99.90
5017;DHT22;2527;50.892;16.706;2023-06-10T03:49:21;17.80;99.90
5017;DHT22;2527;50.892;16.706;2023-06-10T03:51:52;17.80;99.90
5017;DHT22;2527;50.892;16.706;2023-06-10T03:54:18;17.80;99.90
5017;DHT22;2527;50.892;16.706;2023-06-10T03:56:44;17.80;99.90
5017;DHT22;2527;50.892;16.706;2023-06-10T03:59:10;17.80;99.90
5017;DHT22;2527;50.892;16.706;2023-06-10T04:01:36;17.80;99.90
5017;DHT22;2527;50.892;16.706;2023-06-10T04:04:03;17.80;99.90
5017;DHT22;2527;50.892;16.706;2023-06-10T04:06:30;17.80;99.90
5017;DHT22;2527;50.892;16.706;2023-06-10T04:08:57;17.80;99.90
5017;DHT22;2527;50.892;16.706;2023-06-10T04:11:24;17.80;99.90
5017;DHT22;2527;50.892;16.706;2023-06-10T04:13:51;17.80;99.90
5017;DHT22;2527;50.892;16.706;2023-06-10T04:16:16;17.80;99.90
5017;DHT22;2527;50.892;16.706;2023-06-10T04:18:42;17.90;99.90
5017;DHT22;2527;50.892;16.706;2023-06-10T04:21:10;17.90;99.90
5017;DHT22;2527;50.892;16.706;2023-06-10T04:23:35;17.90;99.90
5017;DHT22;2527;50.892;16.706;2023-06-10T04:26:02;17.90;99.90
5017;DHT22;2527;50.892;16.706;2023-06-10T04:28:28;17.90;99.90
5017;DHT22;2527;50.892;16.706;2023-06-10T04:30:53;17.40;99.90
5017;DHT22;2527;50.892;16.706;2023-06-10T04:33:19;18.00;99.90
5017;DHT22;2527;50.892;16.706;2023-06-10T04:35:45;18.00;99.90
5017;DHT22;2527;50.892;16.706;2023-06-10T04:38:13;18.00;99.90
5017;DHT22;2527;50.892;16.706;2023-06-10T04:40:39;18.00;99.90
5017;DHT22;2527;50.892;16.706;2023-06-10T04:43:07;18.00;99.90
5017;DHT22;2527;50.892;16.706;2023-06-10T04:45:34;18.00;99.90
5017;DHT22;2527;50.892;16.706;2023-06-10T04:47:59;18.10;99.90
5017;DHT22;2527;50.892;16.706;2023-06-10T04:50:25;18.00;99.90
5017;DHT22;2527;50.892;16.706;2023-06-10T04:52:51;18.00;99.90
5017;DHT22;2527;50.892;16.706;2023-06-10T04:55:19;18.10;99.90
5017;DHT22;2527;50.892;16.706;2023-06-10T04:57:44;18.10;99.90
5017;DHT22;2527;50.892;16.706;2023-06-10T05:00:10;18.10;99.90
5017;DHT22;2527;50.892;16.706;2023-06-10T05:02:37;18.10;99.90
5017;DHT22;2527;50.892;16.706;2023-06-10T05:05:02;18.10;99.90
5017;DHT22;2527;50.892;16.706;2023-06-10T05:07:31;18.10;99.90
5017;DHT22;2527;50.892;16.706;2023-06-10T05:09:56;18.40;99.90
5017;DHT22;2527;50.892;16.706;2023-06-10T05:12:22;18.20;99.90
5017;DHT22;2527;50.892;16.706;2023-06-10T05:14:48;18.20;99.90
5017;DHT22;2527;50.892;16.706;2023-06-10T05:17:14;18.20;99.90
5017;DHT22;2527;50.892;16.706;2023-06-10T05:19:39;18.20;99.90
5017;DHT22;2527;50.892;16.706;2023-06-10T05:22:05;18.30;99.90
5017;DHT22;2527;50.892;16.706;2023-06-10T05:24:31;18.30;99.90
5017;DHT22;2527;50.892;16.706;2023-06-10T05:26:56;18.30;99.90
5017;DHT22;2527;50.892;16.706;2023-06-10T05:29:22;18.30;99.90
5017;DHT22;2527;50.892;16.706;2023-06-10T05:31:48;18.30;99.90
5017;DHT22;2527;50.892;16.706;2023-06-10T05:34:14;18.40;99.90
5017;DHT22;2527;50.892;16.706;2023-06-10T05:36:40;18.40;99.90
5017;DHT22;2527;50.892;16.706;2023-06-10T05:39:05;18.40;99.90
5017;DHT22;2527;50.892;16.706;2023-06-10T05:41:31;18.50;99.90
5017;DHT22;2527;50.892;16.706;2023-06-10T05:43:57;18.50;99.90
5017;DHT22;2527;50.892;16.706;2023-06-10T05:46:22;18.50;99.90
5017;DHT22;2527;50.892;16.706;2023-06-10T05:48:48;18.50;99.90
5017;DHT22;2527;50.892;16.706;2023-06-10T05:51:14;18.50;99.90
5017;DHT22;2527;50.892;16.706;2023-06-10T05:53:39;18.50;99.90
5017;DHT22;2527;50.892;16.706;2023-06-10T05:56:06;18.50;99.90
5017;DHT22;2527;50.892;16.706;2023-06-10T05:58:32;18.60;99.90
5017;DHT22;2527;50.892;16.706;2023-06-10T06:00:57;18.60;99.90
5017;DHT22;2527;50.892;16.706;2023-06-10T06:03:23;18.60;99.90
5017;DHT22;2527;50.892;16.706;2023-06-10T06:05:49;18.60;99.90
5017;DHT22;2527;50.892;16.706;2023-06-10T06:08:15;18.70;99.90
5017;DHT22;2527;50.892;16.706;2023-06-10T06:10:47;18.70;99.90
5017;DHT22;2527;50.892;16.706;2023-06-10T06:13:16;18.70;99.90
5017;DHT22;2527;50.892;16.706;2023-06-10T06:15:42;18.80;99.90
5017;DHT22;2527;50.892;16.706;2023-06-10T06:18:09;18.90;99.90
5017;DHT22;2527;50.892;16.706;2023-06-10T06:20:35;19.00;99.90
5017;DHT22;2527;50.892;16.706;2023-06-10T06:23:00;19.10;99.90
5017;DHT22;2527;50.892;16.706;2023-06-10T06:25:26;19.20;99.90
5017;DHT22;2527;50.892;16.706;2023-06-10T06:27:53;19.30;99.90
5017;DHT22;2527;50.892;16.706;2023-06-10T06:30:19;19.40;99.90
5017;DHT22;2527;50.892;16.706;2023-06-10T06:32:44;19.50;99.90
5017;DHT22;2527;50.892;16.706;2023-06-10T06:35:11;19.70;99.90
5017;DHT22;2527;50.892;16.706;2023-06-10T06:37:36;19.80;99.90
5017;DHT22;2527;50.892;16.706;2023-06-10T06:40:02;19.80;99.90
5017;DHT22;2527;50.892;16.706;2023-06-10T06:42:29;19.90;99.90
5017;DHT22;2527;50.892;16.706;2023-06-10T06:44:54;19.90;99.90
5017;DHT22;2527;50.892;16.706;2023-06-10T06:47:21;20.00;99.90
5017;DHT22;2527;50.892;16.706;2023-06-10T06:49:46;20.10;99.90
5017;DHT22;2527;50.892;16.706;2023-06-10T06:52:12;20.20;99.90
5017;DHT22;2527;50.892;16.706;2023-06-10T06:54:38;20.30;99.90
5017;DHT22;2527;50.892;16.706;2023-06-10T06:57:04;20.40;99.90
5017;DHT22;2527;50.892;16.706;2023-06-10T06:59:29;20.50;99.90
5017;DHT22;2527;50.892;16.706;2023-06-10T07:01:55;20.50;99.90
5017;DHT22;2527;50.892;16.706;2023-06-10T07:04:21;20.60;99.90
5017;DHT22;2527;50.892;16.706;2023-06-10T07:06:49;20.70;99.90
5017;DHT22;2527;50.892;16.706;2023-06-10T07:09:14;20.60;99.90
5017;DHT22;2527;50.892;16.706;2023-06-10T07:11:40;20.70;99.90
5017;DHT22;2527;50.892;16.706;2023-06-10T07:14:06;20.70;99.90
5017;DHT22;2527;50.892;16.706;2023-06-10T07:16:32;20.70;99.90
5017;DHT22;2527;50.892;16.706;2023-06-10T07:18:57;20.70;99.90
5017;DHT22;2527;50.892;16.706;2023-06-10T07:21:23;20.70;99.90
5017;DHT22;2527;50.892;16.706;2023-06-10T07:23:49;20.70;99.90
5017;DHT22;2527;50.892;16.706;2023-06-10T07:26:18;20.60;99.90
5017;DHT22;2527;50.892;16.706;2023-06-10T07:28:44;20.60;99.90
5017;DHT22;2527;50.892;16.706;2023-06-10T07:31:09;20.60;99.90
5017;DHT22;2527;50.892;16.706;2023-06-10T07:33:37;20.70;99.90
5017;DHT22;2527;50.892;16.706;2023-06-10T07:36:04;20.70;99.90
5017;DHT22;2527;50.892;16.706;2023-06-10T07:38:31;20.70;99.90
5017;DHT22;2527;50.892;16.706;2023-06-10T07:40:57;20.80;99.90
5017;DHT22;2527;50.892;16.706;2023-06-10T07:43:23;20.90;99.90
5017;DHT22;2527;50.892;16.706;2023-06-10T07:45:50;21.00;99.90
5017;DHT22;2527;50.892;16.706;2023-06-10T07:48:16;21.00;99.90
5017;DHT22;2527;50.892;16.706;2023-06-10T07:50:41;21.10;99.90
5017;DHT22;2527;50.892;16.706;2023-06-10T07:53:07;21.10;99.90
5017;DHT22;2527;50.892;16.706;2023-06-10T07:55:33;21.20;99.90
5017;DHT22;2527;50.892;16.706;2023-06-10T07:57:59;21.30;99.90
5017;DHT22;2527;50.892;16.706;2023-06-10T08:00:25;21.40;99.90
5017;DHT22;2527;50.892;16.706;2023-06-10T08:02:50;21.40;99.90
5017;DHT22;2527;50.892;16.706;2023-06-10T08:05:17;21.40;99.90
5017;DHT22;2527;50.892;16.706;2023-06-10T08:07:43;21.50;99.90
5017;DHT22;2527;50.892;16.706;2023-06-10T08:10:08;21.50;99.90
5017;DHT22;2527;50.892;16.706;2023-06-10T08:12:34;21.50;99.90
5017;DHT22;2527;50.892;16.706;2023-06-10T08:15:01;21.50;99.90
5017;DHT22;2527;50.892;16.706;2023-06-10T08:17:26;21.60;99.90
5017;DHT22;2527;50.892;16.706;2023-06-10T08:19:52;21.60;99.90
5017;DHT22;2527;50.892;16.706;2023-06-10T08:22:18;21.70;99.90
5017;DHT22;2527;50.892;16.706;2023-06-10T08:24:43;21.70;99.90
5017;DHT22;2527;50.892;16.706;2023-06-10T08:27:09;21.80;99.90
5017;DHT22;2527;50.892;16.706;2023-06-10T08:29:35;22.00;99.90
5017;DHT22;2527;50.892;16.706;2023-06-10T08:32:01;22.00;99.90
5017;DHT22;2527;50.892;16.706;2023-06-10T08:34:27;22.10;99.90
5017;DHT22;2527;50.892;16.706;2023-06-10T08:36:53;22.10;99.90
5017;DHT22;2527;50.892;16.706;2023-06-10T08:39:21;22.30;99.90
5017;DHT22;2527;50.892;16.706;2023-06-10T08:42:33;22.40;99.90
5017;DHT22;2527;50.892;16.706;2023-06-10T08:44:33;22.60;99.90
5017;DHT22;2527;50.892;16.706;2023-06-10T08:47:04;22.90;99.90
5017;DHT22;2527;50.892;16.706;2023-06-10T08:49:34;23.10;99.90
5017;DHT22;2527;50.892;16.706;2023-06-10T08:52:03;23.30;99.90
5017;DHT22;2527;50.892;16.706;2023-06-10T08:54:33;23.40;99.90
5017;DHT22;2527;50.892;16.706;2023-06-10T08:57:00;23.40;99.90
5017;DHT22;2527;50.892;16.706;2023-06-10T08:59:29;23.40;99.90
5017;DHT22;2527;50.892;16.706;2023-06-10T09:01:55;23.40;99.90
5017;DHT22;2527;50.892;16.706;2023-06-10T09:04:20;23.30;99.90
5017;DHT22;2527;50.892;16.706;2023-06-10T09:06:47;23.30;99.90
5017;DHT22;2527;50.892;16.706;2023-06-10T09:09:14;23.20;99.90
5017;DHT22;2527;50.892;16.706;2023-06-10T09:11:41;23.20;99.90
5017;DHT22;2527;50.892;16.706;2023-06-10T09:14:08;23.20;99.90
5017;DHT22;2527;50.892;16.706;2023-06-10T09:16:34;23.30;99.90
5017;DHT22;2527;50.892;16.706;2023-06-10T09:19:00;23.40;99.90
5017;DHT22;2527;50.892;16.706;2023-06-10T09:21:33;23.40;99.90
5017;DHT22;2527;50.892;16.706;2023-06-10T09:23:59;23.50;99.90
5017;DHT22;2527;50.892;16.706;2023-06-10T09:26:28;23.50;99.90
5017;DHT22;2527;50.892;16.706;2023-06-10T09:29:05;23.60;99.90
5017;DHT22;2527;50.892;16.706;2023-06-10T09:31:33;23.70;99.90
5017;DHT22;2527;50.892;16.706;2023-06-10T09:34:10;23.70;99.90
5017;DHT22;2527;50.892;16.706;2023-06-10T09:36:37;23.80;99.90
5017;DHT22;2527;50.892;16.706;2023-06-10T09:39:03;23.80;99.90
5017;DHT22;2527;50.892;16.706;2023-06-10T09:41:35;23.90;99.90
5017;DHT22;2527;50.892;16.706;2023-06-10T09:44:01;23.90;99.90
5017;DHT22;2527;50.892;16.706;2023-06-10T09:46:31;23.90;99.90
5017;DHT22;2527;50.892;16.706;2023-06-10T09:48:58;24.00;99.90
5017;DHT22;2527;50.892;16.706;2023-06-10T09:51:26;24.10;99.90
5017;DHT22;2527;50.892;16.706;2023-06-10T09:53:51;24.10;99.90
5017;DHT22;2527;50.892;16.706;2023-06-10T09:56:17;24.20;99.90
5017;DHT22;2527;50.892;16.706;2023-06-10T09:58:44;24.20;99.90
5017;DHT22;2527;50.892;16.706;2023-06-10T10:01:13;24.20;99.90
5017;DHT22;2527;50.892;16.706;2023-06-10T10:03:52;24.30;99.90
5017;DHT22;2527;50.892;16.706;2023-06-10T10:06:18;24.30;99.90
5017;DHT22;2527;50.892;16.706;2023-06-10T10:08:48;24.30;99.90
5017;DHT22;2527;50.892;16.706;2023-06-10T10:11:16;24.40;99.90
5017;DHT22;2527;50.892;16.706;2023-06-10T10:13:42;24.40;99.90
5017;DHT22;2527;50.892;16.706;2023-06-10T10:16:11;24.50;99.90
5017;DHT22;2527;50.892;16.706;2023-06-10T10:18:39;24.50;99.90
5017;DHT22;2527;50.892;16.706;2023-06-10T10:21:05;24.40;99.90
5017;DHT22;2527;50.892;16.706;2023-06-10T10:23:38;24.30;99.90
5017;DHT22;2527;50.892;16.706;2023-06-10T10:26:07;24.20;99.90
5017;DHT22;2527;50.892;16.706;2023-06-10T10:28:44;24.30;99.90
5017;DHT22;2527;50.892;16.706;2023-06-10T10:31:10;24.30;99.90
5017;DHT22;2527;50.892;16.706;2023-06-10T10:33:42;24.40;99.90
5017;DHT22;2527;50.892;16.706;2023-06-10T10:36:10;24.30;99.90
5017;DHT22;2527;50.892;16.706;2023-06-10T10:38:36;24.30;99.90
5017;DHT22;2527;50.892;16.706;2023-06-10T10:41:02;24.20;99.90
5017;DHT22;2527;50.892;16.706;2023-06-10T10:43:28;24.20;99.90
5017;DHT22;2527;50.892;16.706;2023-06-10T10:45:59;24.20;99.90
5017;DHT22;2527;50.892;16.706;2023-06-10T10:48:25;24.20;99.90
5017;DHT22;2527;50.892;16.706;2023-06-10T10:50:58;24.30;99.90
5017;DHT22;2527;50.892;16.706;2023-06-10T10:53:24;24.30;99.90
5017;DHT22;2527;50.892;16.706;2023-06-10T10:58:25;24.40;99.90
5017;DHT22;2527;50.892;16.706;2023-06-10T11:00:51;24.40;99.90
5017;DHT22;2527;50.892;16.706;2023-06-10T11:03:17;24.50;99.90
5017;DHT22;2527;50.892;16.706;2023-06-10T11:05:44;24.50;99.90
5017;DHT22;2527;50.892;16.706;2023-06-10T11:08:15;24.50;99.90
5017;DHT22;2527;50.892;16.706;2023-06-10T11:10:41;24.60;99.90
5017;DHT22;2527;50.892;16.706;2023-06-10T11:13:15;24.60;99.90
5017;DHT22;2527;50.892;16.706;2023-06-10T11:15:44;24.70;99.90
5017;DHT22;2527;50.892;16.706;2023-06-10T11:18:20;24.70;99.90
5017;DHT22;2527;50.892;16.706;2023-06-10T11:28:38;24.70;99.90
5017;DHT22;2527;50.892;16.706;2023-06-10T11:31:20;24.80;99.90
5017;DHT22;2527;50.892;16.706;2023-06-10T11:33:51;24.70;99.90
5017;DHT22;2527;50.892;16.706;2023-06-10T11:36:17;24.60;99.90
5017;DHT22;2527;50.892;16.706;2023-06-10T11:38:43;24.50;99.90
5017;DHT22;2527;50.892;16.706;2023-06-10T11:41:09;24.40;99.90
5017;DHT22;2527;50.892;16.706;2023-06-10T11:43:35;24.30;99.90
5017;DHT22;2527;50.892;16.706;2023-06-10T11:46:01;24.20;99.90
5017;DHT22;2527;50.892;16.706;2023-06-10T11:48:27;24.10;99.90
5017;DHT22;2527;50.892;16.706;2023-06-10T11:50:56;24.10;99.90
5017;DHT22;2527;50.892;16.706;2023-06-10T11:53:22;23.90;99.90
5017;DHT22;2527;50.892;16.706;2023-06-10T11:55:50;23.80;99.90
5017;DHT22;2527;50.892;16.706;2023-06-10T11:58:17;23.70;99.90
5017;DHT22;2527;50.892;16.706;2023-06-10T12:00:44;23.70;99.90
5017;DHT22;2527;50.892;16.706;2023-06-10T12:03:10;23.70;99.90
5017;DHT22;2527;50.892;16.706;2023-06-10T12:05:36;23.60;99.90
5017;DHT22;2527;50.892;16.706;2023-06-10T12:08:12;23.50;99.90
5017;DHT22;2527;50.892;16.706;2023-06-10T12:10:41;23.50;99.90
5017;DHT22;2527;50.892;16.706;2023-06-10T12:13:10;23.50;99.90
5017;DHT22;2527;50.892;16.706;2023-06-10T12:15:36;23.50;99.90
5017;DHT22;2527;50.892;16.706;2023-06-10T12:18:02;23.50;99.90
5017;DHT22;2527;50.892;16.706;2023-06-10T12:20:28;23.50;99.90
5017;DHT22;2527;50.892;16.706;2023-06-10T12:22:54;23.60;99.90
5017;DHT22;2527;50.892;16.706;2023-06-10T12:25:24;23.60;99.90
5017;DHT22;2527;50.892;16.706;2023-06-10T12:27:51;23.60;99.90
5017;DHT22;2527;50.892;16.706;2023-06-10T12:30:19;23.60;99.90
5017;DHT22;2527;50.892;16.706;2023-06-10T12:32:45;23.60;99.90
5017;DHT22;2527;50.892;16.706;2023-06-10T12:35:12;23.60;99.90
5017;DHT22;2527;50.892;16.706;2023-06-10T12:37:38;23.60;99.90
5017;DHT22;2527;50.892;16.706;2023-06-10T12:40:05;23.60;99.90
5017;DHT22;2527;50.892;16.706;2023-06-10T12:42:32;23.70;99.90
5017;DHT22;2527;50.892;16.706;2023-06-10T12:45:01;24.50;99.90
5017;DHT22;2527;50.892;16.706;2023-06-10T12:47:30;23.70;99.90
5017;DHT22;2527;50.892;16.706;2023-06-10T12:50:00;23.60;99.90
5017;DHT22;2527;50.892;16.706;2023-06-10T12:52:27;23.60;99.90
5017;DHT22;2527;50.892;16.706;2023-06-10T12:54:56;23.60;99.90
5017;DHT22;2527;50.892;16.706;2023-06-10T12:57:22;23.50;99.90
5017;DHT22;2527;50.892;16.706;2023-06-10T12:59:47;23.50;99.90
5017;DHT22;2527;50.892;16.706;2023-06-10T13:02:20;23.50;99.90
5017;DHT22;2527;50.892;16.706;2023-06-10T13:04:49;23.50;99.90
5017;DHT22;2527;50.892;16.706;2023-06-10T13:07:15;23.50;99.90
5017;DHT22;2527;50.892;16.706;2023-06-10T13:09:41;23.50;99.90
5017;DHT22;2527;50.892;16.706;2023-06-10T13:12:06;23.50;99.90
5017;DHT22;2527;50.892;16.706;2023-06-10T13:14:33;23.50;99.90
5017;DHT22;2527;50.892;16.706;2023-06-10T13:16:58;23.50;99.90
5017;DHT22;2527;50.892;16.706;2023-06-10T13:19:24;23.50;99.90
5017;DHT22;2527;50.892;16.706;2023-06-10T13:21:50;23.50;99.90
5017;DHT22;2527;50.892;16.706;2023-06-10T13:24:17;23.50;99.90
5017;DHT22;2527;50.892;16.706;2023-06-10T13:26:42;23.50;99.90
5017;DHT22;2527;50.892;16.706;2023-06-10T13:29:08;23.60;99.90
5017;DHT22;2527;50.892;16.706;2023-06-10T13:31:39;23.60;99.90
5017;DHT22;2527;50.892;16.706;2023-06-10T13:34:05;23.60;99.90
5017;DHT22;2527;50.892;16.706;2023-06-10T13:36:30;23.60;99.90
5017;DHT22;2527;50.892;16.706;2023-06-10T13:38:56;23.60;99.90
5017;DHT22;2527;50.892;16.706;2023-06-10T13:41:22;23.60;99.90
5017;DHT22;2527;50.892;16.706;2023-06-10T13:43:48;23.70;99.90
5017;DHT22;2527;50.892;16.706;2023-06-10T13:46:13;23.70;99.90
5017;DHT22;2527;50.892;16.706;2023-06-10T13:48:39;23.70;99.90
5017;DHT22;2527;50.892;16.706;2023-06-10T13:51:05;23.80;99.90
5017;DHT22;2527;50.892;16.706;2023-06-10T13:53:31;24.00;99.90
5017;DHT22;2527;50.892;16.706;2023-06-10T13:55:57;23.80;99.90
5017;DHT22;2527;50.892;16.706;2023-06-10T13:58:23;23.80;99.90
5017;DHT22;2527;50.892;16.706;2023-06-10T14:00:48;23.90;99.90
5017;DHT22;2527;50.892;16.706;2023-06-10T14:03:14;23.90;99.90
5017;DHT22;2527;50.892;16.706;2023-06-10T14:05:40;23.10;99.90
5017;DHT22;2527;50.892;16.706;2023-06-10T14:08:05;24.00;99.90
5017;DHT22;2527;50.892;16.706;2023-06-10T14:10:31;24.00;99.90
5017;DHT22;2527;50.892;16.706;2023-06-10T14:12:56;24.00;99.90
5017;DHT22;2527;50.892;16.706;2023-06-10T14:15:22;24.10;99.90
5017;DHT22;2527;50.892;16.706;2023-06-10T14:17:48;24.10;99.90
5017;DHT22;2527;50.892;16.706;2023-06-10T14:20:13;24.10;99.90
5017;DHT22;2527;50.892;16.706;2023-06-10T14:22:39;24.20;99.90
5017;DHT22;2527;50.892;16.706;2023-06-10T14:25:05;24.20;99.90
5017;DHT22;2527;50.892;16.706;2023-06-10T14:27:31;24.20;99.90
5017;DHT22;2527;50.892;16.706;2023-06-10T14:29:57;24.30;99.90
5017;DHT22;2527;50.892;16.706;2023-06-10T14:32:23;24.30;99.90
5017;DHT22;2527;50.892;16.706;2023-06-10T14:34:48;24.30;99.90
5017;DHT22;2527;50.892;16.706;2023-06-10T14:37:14;24.30;99.90
5017;DHT22;2527;50.892;16.706;2023-06-10T14:39:40;24.20;99.90
5017;DHT22;2527;50.892;16.706;2023-06-10T14:42:06;24.20;99.90
5017;DHT22;2527;50.892;16.706;2023-06-10T14:44:31;24.20;99.90
5017;DHT22;2527;50.892;16.706;2023-06-10T14:46:57;24.20;99.90
5017;DHT22;2527;50.892;16.706;2023-06-10T14:49:23;24.20;99.90
5017;DHT22;2527;50.892;16.706;2023-06-10T14:51:49;24.20;99.90
5017;DHT22;2527;50.892;16.706;2023-06-10T14:54:15;24.20;99.90
5017;DHT22;2527;50.892;16.706;2023-06-10T14:56:41;24.20;99.90
5017;DHT22;2527;50.892;16.706;2023-06-10T14:59:06;24.20;99.90
5017;DHT22;2527;50.892;16.706;2023-06-10T15:01:32;24.20;99.90
5017;DHT22;2527;50.892;16.706;2023-06-10T15:03:58;24.30;99.90
5017;DHT22;2527;50.892;16.706;2023-06-10T15:06:23;24.30;99.90
5017;DHT22;2527;50.892;16.706;2023-06-10T15:08:49;24.30;99.90
5017;DHT22;2527;50.892;16.706;2023-06-10T15:11:15;24.30;99.90
5017;DHT22;2527;50.892;16.706;2023-06-10T15:13:40;24.30;99.90
5017;DHT22;2527;50.892;16.706;2023-06-10T15:16:06;24.40;99.90
5017;DHT22;2527;50.892;16.706;2023-06-10T15:18:32;24.40;99.90
5017;DHT22;2527;50.892;16.706;2023-06-10T15:20:57;24.40;99.90
5017;DHT22;2527;50.892;16.706;2023-06-10T15:23:23;24.40;99.90
5017;DHT22;2527;50.892;16.706;2023-06-10T15:25:49;24.40;99.90
5017;DHT22;2527;50.892;16.706;2023-06-10T15:28:14;24.40;99.90
5017;DHT22;2527;50.892;16.706;2023-06-10T15:30:40;24.40;99.90
5017;DHT22;2527;50.892;16.706;2023-06-10T15:33:06;24.30;99.90
5017;DHT22;2527;50.892;16.706;2023-06-10T15:35:34;24.40;99.90
5017;DHT22;2527;50.892;16.706;2023-06-10T15:38:00;24.40;99.90
5017;DHT22;2527;50.892;16.706;2023-06-10T15:40:25;24.30;99.90
5017;DHT22;2527;50.892;16.706;2023-06-10T15:42:51;24.40;99.90
5017;DHT22;2527;50.892;16.706;2023-06-10T15:45:17;24.30;99.90
5017;DHT22;2527;50.892;16.706;2023-06-10T15:47:42;24.40;99.90
5017;DHT22;2527;50.892;16.706;2023-06-10T15:50:08;24.40;99.90
5017;DHT22;2527;50.892;16.706;2023-06-10T15:52:34;24.40;99.90
5017;DHT22;2527;50.892;16.706;2023-06-10T15:54:59;24.40;99.90
5017;DHT22;2527;50.892;16.706;2023-06-10T15:57:25;24.30;99.90